Time;durP1;ratioP1;P1;durP2;ratioP2;P2;SDS_P1;SDS_P2;PMS_P1;PMS_P2;Temp;Humidity;BMP_temperature;BMP_pressure;BME280_temperature;BME280_humidity;BME280_pressure;Samples;Min_cycle;Max_cycle;Signal;HPM_P1;HPM_P2
2022/12/16 00:00:26;;;;;;;57.80;31.15;;;-0.10;99.90;;;;;;5009453;28;20049;-66
2022/12/16 00:02:51;;;;;;;56.20;32.20;;;-0.20;99.90;;;;;;5012007;28;20092;-66
2022/12/16 00:05:20;;;;;;;51.78;30.42;;;-0.20;99.90;;;;;;5011335;28;20038;-65
2022/12/16 00:07:47;;;;;;;55.30;31.52;;;-0.20;99.90;;;;;;5009588;28;20104;-65
2022/12/16 00:10:13;;;;;;;56.83;31.13;;;-0.20;99.90;;;;;;5010602;28;20044;-65
2022/12/16 00:12:39;;;;;;;61.70;31.42;;;-0.20;99.90;;;;;;5002728;28;20042;-65
2022/12/16 00:15:05;;;;;;;60.13;30.77;;;-0.30;99.90;;;;;;5009575;28;20068;-65
2022/12/16 00:17:30;;;;;;;53.00;31.67;;;-0.20;99.90;;;;;;5032027;28;20113;-66
2022/12/16 00:19:56;;;;;;;57.25;32.20;;;-0.20;99.90;;;;;;5013019;28;20160;-65
2022/12/16 00:22:22;;;;;;;61.05;32.03;;;-0.20;99.90;;;;;;5010345;28;20046;-66
2022/12/16 00:24:48;;;;;;;59.28;31.95;;;-0.20;99.90;;;;;;5011175;28;20048;-66
2022/12/16 00:27:13;;;;;;;59.42;30.77;;;-0.20;99.90;;;;;;5004533;28;20034;-66
2022/12/16 00:29:39;;;;;;;57.47;32.03;;;-0.20;99.90;;;;;;5015064;28;20034;-66
2022/12/16 00:32:05;;;;;;;57.80;32.30;;;-0.20;99.90;;;;;;5008995;28;20045;-66
2022/12/16 00:34:31;;;;;;;61.47;31.13;;;-0.20;99.90;;;;;;5008652;28;20385;-66
2022/12/16 00:36:57;;;;;;;58.50;30.08;;;-0.20;99.90;;;;;;5010889;28;20060;-66
2022/12/16 00:39:23;;;;;;;60.83;32.33;;;-0.20;99.90;;;;;;5010905;28;20034;-65
2022/12/16 00:41:49;;;;;;;57.53;30.73;;;-0.20;99.90;;;;;;5002621;28;20064;-65
2022/12/16 00:44:15;;;;;;;61.35;33.25;;;-0.20;99.90;;;;;;5012146;28;20470;-65
2022/12/16 00:46:41;;;;;;;54.88;32.67;;;-0.30;99.90;;;;;;5013374;28;20172;-65
2022/12/16 00:49:06;;;;;;;56.78;31.85;;;-0.20;99.90;;;;;;5018280;28;20042;-65
2022/12/16 00:51:32;;;;;;;61.25;34.15;;;-0.20;99.90;;;;;;5010600;28;20038;-65
2022/12/16 00:53:57;;;;;;;55.47;31.48;;;-0.20;99.90;;;;;;5010853;28;20100;-65
2022/12/16 00:56:23;;;;;;;63.72;33.25;;;-0.30;99.90;;;;;;5009650;28;20038;-65
2022/12/16 00:58:49;;;;;;;63.35;32.72;;;-0.20;99.90;;;;;;5006623;28;20044;-65
2022/12/16 01:01:15;;;;;;;60.03;32.67;;;-0.20;99.90;;;;;;5010218;28;20042;-65
2022/12/16 01:03:40;;;;;;;60.78;32.90;;;-0.20;99.90;;;;;;5002695;28;20097;-65
2022/12/16 01:06:11;;;;;;;59.97;32.90;;;-0.20;99.90;;;;;;5009305;28;20041;-65
2022/12/16 01:08:37;;;;;;;57.78;32.72;;;-0.20;99.90;;;;;;5009009;28;20088;-65
2022/12/16 01:11:03;;;;;;;60.97;31.13;;;-0.10;99.90;;;;;;5081839;22;20045;-72
2022/12/16 01:13:28;;;;;;;60.80;33.40;;;-0.20;99.90;;;;;;5045070;28;20131;-71
2022/12/16 01:15:57;;;;;;;60.55;33.03;;;-0.10;99.90;;;;;;5042319;28;20061;-72
2022/12/16 01:18:23;;;;;;;62.08;32.67;;;-0.20;99.90;;;;;;5047552;28;20043;-72
2022/12/16 01:20:49;;;;;;;61.35;32.45;;;-0.10;99.90;;;;;;5050522;28;20574;-72
2022/12/16 01:23:14;;;;;;;59.33;32.50;;;-0.10;99.90;;;;;;5047957;28;20044;-72
2022/12/16 01:25:40;;;;;;;61.28;32.47;;;-0.10;99.90;;;;;;5048971;28;20048;-72
2022/12/16 01:28:05;;;;;;;63.13;32.83;;;-0.10;99.90;;;;;;5043610;28;20486;-72
2022/12/16 01:30:31;;;;;;;55.45;31.38;;;-0.10;99.90;;;;;;5050889;28;20117;-72
2022/12/16 01:32:57;;;;;;;63.38;34.28;;;-0.10;99.90;;;;;;5047170;28;20547;-72
2022/12/16 01:35:22;;;;;;;59.30;33.10;;;-0.10;99.90;;;;;;5048950;28;20055;-72
2022/12/16 01:37:48;;;;;;;58.53;32.45;;;-0.20;99.90;;;;;;5048389;28;20029;-72
2022/12/16 01:40:23;;;;;;;67.05;33.90;;;-0.10;99.90;;;;;;5049776;28;20033;-72
2022/12/16 01:42:49;;;;;;;63.95;33.60;;;-0.10;99.90;;;;;;5048980;28;20044;-72
2022/12/16 01:45:27;;;;;;;65.20;34.60;;;-0.10;99.90;;;;;;5053266;28;20037;-72
2022/12/16 01:47:56;;;;;;;60.63;32.20;;;-0.10;99.90;;;;;;5050502;28;20044;-72
2022/12/16 01:50:22;;;;;;;61.75;32.28;;;-0.20;99.90;;;;;;5054493;28;20049;-72
2022/12/16 01:52:52;;;;;;;59.05;33.20;;;-0.10;99.90;;;;;;5049085;28;20033;-72
2022/12/16 01:55:23;;;;;;;58.53;32.70;;;-0.10;99.90;;;;;;5054520;28;20041;-72
2022/12/16 01:57:54;;;;;;;59.63;33.10;;;-0.10;99.90;;;;;;5052086;28;20044;-72
2022/12/16 02:00:19;;;;;;;57.58;33.08;;;-0.10;99.90;;;;;;5054615;28;20041;-72
2022/12/16 02:02:46;;;;;;;63.53;32.53;;;0.00;99.90;;;;;;5052921;28;20482;-72
2022/12/16 02:05:19;;;;;;;59.17;32.58;;;-0.10;99.90;;;;;;5051511;28;20041;-72
2022/12/16 02:07:54;;;;;;;60.78;33.17;;;0.00;99.90;;;;;;5048423;28;20029;-72
2022/12/16 02:10:28;;;;;;;58.53;31.98;;;-0.10;99.90;;;;;;5053297;28;20056;-72
2022/12/16 02:13:21;;;;;;;60.03;33.33;;;-0.10;99.90;;;;;;5052865;28;20045;-72
2022/12/16 02:15:55;;;;;;;61.50;34.13;;;-0.10;99.90;;;;;;5053832;28;20044;-72
2022/12/16 02:18:21;;;;;;;55.90;31.95;;;-0.10;99.90;;;;;;5048759;28;20045;-72
2022/12/16 02:21:12;;;;;;;62.78;32.35;;;-0.10;99.90;;;;;;5051849;28;20043;-72
2022/12/16 02:23:55;;;;;;;62.55;32.28;;;-0.10;99.90;;;;;;5049756;28;20041;-72
2022/12/16 02:26:33;;;;;;;57.70;32.88;;;-0.10;99.90;;;;;;5054024;28;20044;-72
2022/12/16 02:29:28;;;;;;;61.75;31.27;;;-0.10;99.90;;;;;;5053471;28;20041;-72
2022/12/16 02:32:24;;;;;;;64.07;31.75;;;-0.10;99.90;;;;;;5051741;28;20040;-72
2022/12/16 02:35:29;;;;;;;60.40;32.65;;;-0.10;99.90;;;;;;5050284;28;20079;-72
2022/12/16 02:38:28;;;;;;;60.63;31.33;;;-0.10;99.90;;;;;;5051648;28;20037;-71
2022/12/16 02:41:01;;;;;;;61.70;31.58;;;-0.10;99.90;;;;;;5049011;28;20127;-72
2022/12/16 02:43:50;;;;;;;58.05;31.98;;;-0.10;99.90;;;;;;5052165;28;20084;-71
2022/12/16 02:46:18;;;;;;;68.57;32.17;;;-0.10;99.90;;;;;;5051844;28;20049;-71
2022/12/16 02:48:44;;;;;;;65.72;32.03;;;-0.20;99.90;;;;;;5049723;28;20043;-71
2022/12/16 02:51:10;;;;;;;66.43;33.67;;;-0.20;99.90;;;;;;5052603;28;20037;-71
2022/12/16 02:53:39;;;;;;;61.10;32.85;;;-0.20;99.90;;;;;;5051049;28;20037;-71
2022/12/16 02:56:17;;;;;;;61.55;32.70;;;-0.20;99.90;;;;;;5043449;28;20041;-71
2022/12/16 02:58:50;;;;;;;66.40;34.05;;;-0.20;99.90;;;;;;5051028;28;20470;-71
2022/12/16 03:01:20;;;;;;;64.18;32.35;;;-0.20;99.90;;;;;;5044098;28;20041;-71
2022/12/16 03:04:00;;;;;;;71.30;33.63;;;-0.20;99.90;;;;;;5050472;28;20098;-71
2022/12/16 03:06:29;;;;;;;59.78;31.95;;;-0.20;99.90;;;;;;5049180;28;20033;-72
2022/12/16 03:08:58;;;;;;;67.80;31.95;;;-0.20;99.90;;;;;;5051357;28;20498;-71
2022/12/16 03:11:28;;;;;;;64.03;31.85;;;-0.20;99.90;;;;;;5050330;28;20051;-71
2022/12/16 03:13:55;;;;;;;63.42;32.75;;;-0.20;99.90;;;;;;5052343;28;20120;-71
2022/12/16 03:16:25;;;;;;;65.20;32.40;;;-0.30;99.90;;;;;;5047328;28;20519;-71
2022/12/16 03:18:55;;;;;;;62.80;32.38;;;-0.30;99.90;;;;;;5051651;28;20089;-72
2022/12/16 03:21:24;;;;;;;68.30;32.38;;;-0.20;99.90;;;;;;5049568;28;20494;-72
2022/12/16 03:23:57;;;;;;;63.45;31.77;;;-0.30;99.90;;;;;;5052192;28;20486;-72
2022/12/16 03:26:34;;;;;;;65.68;32.88;;;-0.30;99.90;;;;;;5043539;28;20120;-72
2022/12/16 03:29:25;;;;;;;66.97;33.15;;;-0.20;99.90;;;;;;5048117;28;20399;-71
2022/12/16 03:31:57;;;;;;;68.00;32.90;;;-0.20;99.90;;;;;;5049937;28;20075;-72
2022/12/16 03:34:51;;;;;;;61.95;31.92;;;-0.20;99.90;;;;;;5052640;28;20036;-71
2022/12/16 03:37:19;;;;;;;63.30;32.42;;;-0.30;99.90;;;;;;5049955;28;20037;-71
2022/12/16 03:39:51;;;;;;;66.82;31.50;;;-0.30;99.90;;;;;;5052443;28;20037;-71
2022/12/16 03:42:17;;;;;;;62.58;32.95;;;-0.30;99.90;;;;;;5051403;28;20045;-71
2022/12/16 03:44:45;;;;;;;62.90;34.10;;;-0.30;99.90;;;;;;5051330;28;20044;-71
2022/12/16 03:47:11;;;;;;;64.03;33.08;;;-0.30;99.90;;;;;;5049252;28;20529;-71
2022/12/16 03:49:37;;;;;;;72.55;34.17;;;-0.20;99.90;;;;;;5051796;28;20036;-71
2022/12/16 03:52:03;;;;;;;68.60;33.38;;;-0.20;99.90;;;;;;5044297;28;20114;-72
2022/12/16 03:54:29;;;;;;;71.60;33.92;;;-0.30;99.90;;;;;;5050496;28;20510;-72
2022/12/16 03:56:55;;;;;;;70.32;34.53;;;-0.20;99.90;;;;;;5050106;28;20083;-72
2022/12/16 03:59:21;;;;;;;62.55;33.45;;;-0.30;99.90;;;;;;5049446;28;20028;-72
2022/12/16 04:01:46;;;;;;;66.43;33.40;;;-0.20;99.90;;;;;;5050875;28;20041;-72
2022/12/16 04:04:12;;;;;;;67.03;33.20;;;-0.20;99.90;;;;;;5050411;28;20093;-72
2022/12/16 04:06:37;;;;;;;71.82;35.53;;;-0.30;99.90;;;;;;5051296;28;20502;-72
2022/12/16 04:09:03;;;;;;;70.30;33.97;;;-0.20;99.90;;;;;;5050849;28;20041;-72
2022/12/16 04:25:32;;;;;;;70.22;34.10;;;-0.30;99.90;;;;;;5042295;28;20045;-72
2022/12/16 04:28:01;;;;;;;67.28;34.25;;;-0.30;99.90;;;;;;5049444;28;20036;-72
2022/12/16 04:30:29;;;;;;;64.97;33.42;;;-0.30;99.90;;;;;;5050435;28;20041;-71
